sensor_id;sensor_type;location;lat;lon;timestamp;pressure;altitude;pressure_sealevel;temperature;humidity
1926;BME280;964;42.606;23.588;2023-02-17T00:01:24;95422.28;;;20.69;24.83
1926;BME280;964;42.606;23.588;2023-02-17T00:03:53;95413.91;;;20.46;25.64
1926;BME280;964;42.606;23.588;2023-02-17T00:06:22;95406.25;;;21.65;24.01
1926;BME280;964;42.606;23.588;2023-02-17T00:08:50;95402.47;;;21.59;24.26
1926;BME280;964;42.606;23.588;2023-02-17T00:11:17;95405.66;;;22.29;22.95
1926;BME280;964;42.606;23.588;2023-02-17T00:13:44;95404.44;;;21.99;22.72
1926;BME280;964;42.606;23.588;2023-02-17T00:16:14;95403.88;;;22.49;22.51
1926;BME280;964;42.606;23.588;2023-02-17T00:18:41;95408.78;;;22.24;22.84
1926;BME280;964;42.606;23.588;2023-02-17T00:21:14;95393.31;;;22.28;22.46
1926;BME280;964;42.606;23.588;2023-02-17T00:23:41;95406.75;;;20.94;23.83
1926;BME280;964;42.606;23.588;2023-02-17T00:26:08;95403.06;;;21.77;23.74
1926;BME280;964;42.606;23.588;2023-02-17T00:28:35;95400.22;;;22.32;22.73
1926;BME280;964;42.606;23.588;2023-02-17T00:31:05;95399.41;;;22.35;22.52
1926;BME280;964;42.606;23.588;2023-02-17T00:33:32;95406.31;;;21.58;23.23
1926;BME280;964;42.606;23.588;2023-02-17T00:36:02;95395.94;;;22.35;22.92
1926;BME280;964;42.606;23.588;2023-02-17T00:38:30;95398.56;;;22.42;22.79
1926;BME280;964;42.606;23.588;2023-02-17T00:40:57;95396.53;;;22.16;22.11
1926;BME280;964;42.606;23.588;2023-02-17T00:43:24;95406.34;;;21.55;22.85
1926;BME280;964;42.606;23.588;2023-02-17T00:45:50;95401.69;;;21.59;23.22
1926;BME280;964;42.606;23.588;2023-02-17T00:48:17;95396.69;;;22.02;22.59
1926;BME280;964;42.606;23.588;2023-02-17T00:50:44;95395.50;;;22.06;22.90
1926;BME280;964;42.606;23.588;2023-02-17T00:53:11;95402.41;;;21.66;22.86
1926;BME280;964;42.606;23.588;2023-02-17T00:55:40;95414.75;;;20.04;24.54
1926;BME280;964;42.606;23.588;2023-02-17T00:58:07;95395.88;;;21.09;23.71
1926;BME280;964;42.606;23.588;2023-02-17T01:00:33;95392.88;;;20.92;24.02
1926;BME280;964;42.606;23.588;2023-02-17T01:03:00;95393.66;;;20.93;23.92
1926;BME280;964;42.606;23.588;2023-02-17T01:05:27;95396.75;;;20.88;24.23
1926;BME280;964;42.606;23.588;2023-02-17T01:07:54;95386.84;;;20.71;24.47
1926;BME280;964;42.606;23.588;2023-02-17T01:10:21;95392.53;;;19.75;25.29
1926;BME280;964;42.606;23.588;2023-02-17T01:12:49;95393.09;;;20.53;24.74
1926;BME280;964;42.606;23.588;2023-02-17T01:15:16;95377.59;;;20.75;24.50
1926;BME280;964;42.606;23.588;2023-02-17T01:17:42;95377.38;;;20.45;24.94
1926;BME280;964;42.606;23.588;2023-02-17T01:20:09;95368.88;;;21.19;24.19
1926;BME280;964;42.606;23.588;2023-02-17T01:22:37;95370.50;;;21.98;23.57
1926;BME280;964;42.606;23.588;2023-02-17T01:25:04;95367.91;;;22.25;22.63
1926;BME280;964;42.606;23.588;2023-02-17T01:27:31;95360.47;;;22.33;22.63
1926;BME280;964;42.606;23.588;2023-02-17T01:29:59;95368.41;;;21.72;23.15
1926;BME280;964;42.606;23.588;2023-02-17T01:32:26;95357.06;;;22.29;23.14
1926;BME280;964;42.606;23.588;2023-02-17T01:34:53;95357.88;;;22.26;22.94
1926;BME280;964;42.606;23.588;2023-02-17T01:37:19;95368.19;;;21.04;23.94
1926;BME280;964;42.606;23.588;2023-02-17T01:39:46;95362.81;;;22.31;22.49
1926;BME280;964;42.606;23.588;2023-02-17T01:42:14;95355.69;;;22.14;22.83
1926;BME280;964;42.606;23.588;2023-02-17T01:47:43;95347.41;;;22.28;23.07
1926;BME280;964;42.606;23.588;2023-02-17T01:50:10;95347.03;;;22.29;22.30
1926;BME280;964;42.606;23.588;2023-02-17T01:52:37;95350.69;;;22.76;22.19
1926;BME280;964;42.606;23.588;2023-02-17T01:55:07;95350.09;;;21.94;23.31
1926;BME280;964;42.606;23.588;2023-02-17T01:57:38;95371.56;;;21.67;23.35
1926;BME280;964;42.606;23.588;2023-02-17T02:00:07;95378.78;;;21.77;23.39
1926;BME280;964;42.606;23.588;2023-02-17T02:02:35;95380.44;;;21.64;23.47
1926;BME280;964;42.606;23.588;2023-02-17T02:05:04;95382.88;;;20.93;24.03
1926;BME280;964;42.606;23.588;2023-02-17T02:07:33;95387.56;;;19.60;25.57
1926;BME280;964;42.606;23.588;2023-02-17T02:10:01;95377.78;;;20.26;24.89
1926;BME280;964;42.606;23.588;2023-02-17T02:12:31;95374.50;;;19.69;25.33
1926;BME280;964;42.606;23.588;2023-02-17T02:15:00;95383.13;;;20.50;24.51
1926;BME280;964;42.606;23.588;2023-02-17T02:17:34;95377.59;;;20.79;24.35
1926;BME280;964;42.606;23.588;2023-02-17T02:20:32;95377.66;;;20.68;24.13
1926;BME280;964;42.606;23.588;2023-02-17T02:23:35;95385.44;;;20.45;24.85
1926;BME280;964;42.606;23.588;2023-02-17T02:26:54;95377.78;;;20.40;25.12
1926;BME280;964;42.606;23.588;2023-02-17T02:32:34;95381.00;;;19.07;25.92
1926;BME280;964;42.606;23.588;2023-02-17T02:35:08;95380.97;;;18.79;26.59
1926;BME280;964;42.606;23.588;2023-02-17T02:37:42;95380.09;;;18.47;27.53
1926;BME280;964;42.606;23.588;2023-02-17T02:40:13;95382.81;;;18.54;27.29
1926;BME280;964;42.606;23.588;2023-02-17T02:42:42;95391.31;;;18.77;27.29
1926;BME280;964;42.606;23.588;2023-02-17T02:45:10;95382.09;;;18.64;26.62
1926;BME280;964;42.606;23.588;2023-02-17T02:47:44;95389.41;;;18.92;26.43
1926;BME280;964;42.606;23.588;2023-02-17T02:50:12;95381.78;;;19.33;26.21
1926;BME280;964;42.606;23.588;2023-02-17T02:52:45;95385.09;;;18.52;28.09
1926;BME280;964;42.606;23.588;2023-02-17T02:55:18;95392.91;;;19.06;26.93
1926;BME280;964;42.606;23.588;2023-02-17T02:57:53;95394.78;;;18.95;27.13
1926;BME280;964;42.606;23.588;2023-02-17T03:00:28;95387.50;;;19.91;26.21
1926;BME280;964;42.606;23.588;2023-02-17T03:03:05;95376.94;;;20.57;24.83
1926;BME280;964;42.606;23.588;2023-02-17T03:05:37;95381.41;;;20.81;24.62
1926;BME280;964;42.606;23.588;2023-02-17T03:08:11;95376.72;;;20.09;25.45
1926;BME280;964;42.606;23.588;2023-02-17T03:10:45;95372.94;;;20.86;24.78
1926;BME280;964;42.606;23.588;2023-02-17T03:13:12;95382.28;;;20.64;24.94
1926;BME280;964;42.606;23.588;2023-02-17T03:15:39;95380.84;;;20.42;25.26
1926;BME280;964;42.606;23.588;2023-02-17T03:18:07;95378.84;;;20.57;24.90
1926;BME280;964;42.606;23.588;2023-02-17T03:20:36;95382.53;;;19.79;26.06
1926;BME280;964;42.606;23.588;2023-02-17T03:23:04;95382.78;;;20.27;25.45
1926;BME280;964;42.606;23.588;2023-02-17T03:25:31;95383.50;;;20.49;24.76
1926;BME280;964;42.606;23.588;2023-02-17T03:27:58;95394.03;;;18.98;26.59
1926;BME280;964;42.606;23.588;2023-02-17T03:30:24;95393.06;;;18.34;27.88
1926;BME280;964;42.606;23.588;2023-02-17T03:32:51;95401.38;;;18.08;28.34
1926;BME280;964;42.606;23.588;2023-02-17T03:35:19;95400.91;;;18.78;27.45
1926;BME280;964;42.606;23.588;2023-02-17T03:37:46;95389.25;;;20.58;25.24
1926;BME280;964;42.606;23.588;2023-02-17T03:40:13;95378.50;;;20.44;25.18
1926;BME280;964;42.606;23.588;2023-02-17T03:42:39;95384.88;;;19.70;25.91
1926;BME280;964;42.606;23.588;2023-02-17T03:45:07;95378.25;;;20.06;25.55
1926;BME280;964;42.606;23.588;2023-02-17T03:47:33;95371.63;;;20.43;24.89
1926;BME280;964;42.606;23.588;2023-02-17T03:50:00;95369.72;;;21.06;24.42
1926;BME280;964;42.606;23.588;2023-02-17T03:52:28;95368.41;;;21.28;23.92
1926;BME280;964;42.606;23.588;2023-02-17T03:54:55;95367.78;;;20.26;24.76
1926;BME280;964;42.606;23.588;2023-02-17T03:57:21;95377.06;;;18.55;27.14
1926;BME280;964;42.606;23.588;2023-02-17T03:59:48;95382.94;;;19.81;25.19
1926;BME280;964;42.606;23.588;2023-02-17T04:02:15;95373.84;;;20.55;24.77
1926;BME280;964;42.606;23.588;2023-02-17T04:04:41;95381.00;;;19.29;26.39
1926;BME280;964;42.606;23.588;2023-02-17T04:07:08;95360.19;;;19.96;25.67
1926;BME280;964;42.606;23.588;2023-02-17T04:09:36;95359.75;;;20.19;25.29
1926;BME280;964;42.606;23.588;2023-02-17T04:12:03;95361.34;;;20.06;25.70
1926;BME280;964;42.606;23.588;2023-02-17T04:14:30;95362.91;;;20.03;25.63
1926;BME280;964;42.606;23.588;2023-02-17T04:16:57;95361.34;;;20.89;24.37
1926;BME280;964;42.606;23.588;2023-02-17T04:19:23;95363.34;;;19.35;26.35
1926;BME280;964;42.606;23.588;2023-02-17T04:21:50;95373.31;;;19.06;26.64
1926;BME280;964;42.606;23.588;2023-02-17T04:24:17;95363.38;;;19.56;26.38
1926;BME280;964;42.606;23.588;2023-02-17T04:26:45;95375.63;;;19.75;25.83
1926;BME280;964;42.606;23.588;2023-02-17T04:29:12;95371.69;;;18.52;27.65
1926;BME280;964;42.606;23.588;2023-02-17T04:31:38;95372.59;;;19.30;26.19
1926;BME280;964;42.606;23.588;2023-02-17T04:34:05;95362.56;;;19.80;25.77
1926;BME280;964;42.606;23.588;2023-02-17T04:36:33;95359.59;;;20.65;25.14
1926;BME280;964;42.606;23.588;2023-02-17T04:38:59;95364.50;;;20.77;24.70
1926;BME280;964;42.606;23.588;2023-02-17T04:41:26;95358.97;;;20.22;25.47
1926;BME280;964;42.606;23.588;2023-02-17T04:43:54;95365.59;;;20.90;24.75
1926;BME280;964;42.606;23.588;2023-02-17T04:46:21;95358.53;;;20.41;25.29
1926;BME280;964;42.606;23.588;2023-02-17T04:48:47;95362.53;;;21.40;24.38
1926;BME280;964;42.606;23.588;2023-02-17T04:51:14;95361.13;;;21.25;24.16
1926;BME280;964;42.606;23.588;2023-02-17T04:53:41;95359.13;;;20.77;24.57
1926;BME280;964;42.606;23.588;2023-02-17T04:56:07;95363.81;;;20.59;25.04
1926;BME280;964;42.606;23.588;2023-02-17T04:58:34;95377.78;;;20.26;25.25
1926;BME280;964;42.606;23.588;2023-02-17T05:01:02;95394.09;;;19.66;25.59
1926;BME280;964;42.606;23.588;2023-02-17T05:03:29;95385.88;;;20.22;24.87
1926;BME280;964;42.606;23.588;2023-02-17T05:05:56;95383.50;;;21.22;24.12
1926;BME280;964;42.606;23.588;2023-02-17T05:08:23;95397.81;;;20.21;24.87
1926;BME280;964;42.606;23.588;2023-02-17T05:10:54;95386.97;;;20.46;24.49
1926;BME280;964;42.606;23.588;2023-02-17T05:13:20;95404.69;;;20.26;24.85
1926;BME280;964;42.606;23.588;2023-02-17T05:15:47;95404.81;;;19.20;25.20
1926;BME280;964;42.606;23.588;2023-02-17T05:18:40;95390.88;;;20.24;25.16
1926;BME280;964;42.606;23.588;2023-02-17T05:21:07;95396.78;;;19.62;26.29
1926;BME280;964;42.606;23.588;2023-02-17T05:23:50;95393.16;;;21.67;23.65
1926;BME280;964;42.606;23.588;2023-02-17T05:26:36;95385.84;;;21.61;23.72
1926;BME280;964;42.606;23.588;2023-02-17T05:29:03;95381.25;;;22.02;23.05
1926;BME280;964;42.606;23.588;2023-02-17T05:31:30;95378.97;;;21.97;22.96
1926;BME280;964;42.606;23.588;2023-02-17T05:33:58;95374.34;;;22.69;22.35
1926;BME280;964;42.606;23.588;2023-02-17T05:36:25;95380.94;;;22.94;21.99
1926;BME280;964;42.606;23.588;2023-02-17T05:38:51;95379.44;;;22.60;22.20
1926;BME280;964;42.606;23.588;2023-02-17T05:41:19;95393.06;;;22.49;22.96
1926;BME280;964;42.606;23.588;2023-02-17T05:43:46;95388.13;;;23.05;22.22
1926;BME280;964;42.606;23.588;2023-02-17T05:46:14;95399.97;;;23.37;21.45
1926;BME280;964;42.606;23.588;2023-02-17T05:48:40;95402.63;;;23.41;21.61
1926;BME280;964;42.606;23.588;2023-02-17T05:51:09;95398.28;;;23.24;21.86
1926;BME280;964;42.606;23.588;2023-02-17T05:53:38;95409.72;;;22.78;22.37
1926;BME280;964;42.606;23.588;2023-02-17T05:56:05;95414.13;;;22.95;22.57
1926;BME280;964;42.606;23.588;2023-02-17T05:58:32;95411.94;;;22.86;21.85
1926;BME280;964;42.606;23.588;2023-02-17T06:00:59;95418.25;;;23.30;21.96
1926;BME280;964;42.606;23.588;2023-02-17T06:03:26;95419.59;;;23.45;21.70
1926;BME280;964;42.606;23.588;2023-02-17T06:05:53;95420.78;;;24.14;21.30
1926;BME280;964;42.606;23.588;2023-02-17T06:08:21;95419.41;;;24.45;21.30
1926;BME280;964;42.606;23.588;2023-02-17T06:10:47;95413.66;;;23.77;22.03
1926;BME280;964;42.606;23.588;2023-02-17T06:13:14;95421.91;;;24.75;20.74
1926;BME280;964;42.606;23.588;2023-02-17T06:15:41;95408.09;;;25.42;20.30
1926;BME280;964;42.606;23.588;2023-02-17T06:18:11;95415.25;;;25.68;20.34
1926;BME280;964;42.606;23.588;2023-02-17T06:20:37;95407.88;;;26.29;19.46
1926;BME280;964;42.606;23.588;2023-02-17T06:23:04;95403.53;;;27.87;18.67
1926;BME280;964;42.606;23.588;2023-02-17T06:25:32;95414.06;;;28.88;17.91
1926;BME280;964;42.606;23.588;2023-02-17T06:27:59;95404.78;;;28.86;17.76
1926;BME280;964;42.606;23.588;2023-02-17T06:30:25;95407.50;;;28.42;17.87
1926;BME280;964;42.606;23.588;2023-02-17T06:32:52;95412.66;;;28.40;18.14
1926;BME280;964;42.606;23.588;2023-02-17T06:35:18;95413.63;;;28.68;18.00
1926;BME280;964;42.606;23.588;2023-02-17T06:37:45;95414.66;;;29.14;17.95
1926;BME280;964;42.606;23.588;2023-02-17T06:40:12;95418.16;;;29.94;17.41
1926;BME280;964;42.606;23.588;2023-02-17T06:42:41;95414.38;;;30.37;16.62
1926;BME280;964;42.606;23.588;2023-02-17T06:45:08;95423.44;;;30.98;16.83
1926;BME280;964;42.606;23.588;2023-02-17T06:47:38;95415.56;;;31.75;15.91
1926;BME280;964;42.606;23.588;2023-02-17T06:50:07;95411.25;;;32.98;14.93
1926;BME280;964;42.606;23.588;2023-02-17T06:52:34;95412.06;;;34.18;14.35
1926;BME280;964;42.606;23.588;2023-02-17T06:55:01;95404.25;;;35.08;14.22
1926;BME280;964;42.606;23.588;2023-02-17T06:57:28;95408.69;;;36.05;13.86
1926;BME280;964;42.606;23.588;2023-02-17T06:59:56;95406.59;;;35.89;13.74
1926;BME280;964;42.606;23.588;2023-02-17T07:02:23;95413.53;;;35.36;13.49
1926;BME280;964;42.606;23.588;2023-02-17T07:04:49;95406.13;;;35.54;13.84
1926;BME280;964;42.606;23.588;2023-02-17T07:07:16;95402.81;;;35.86;13.32
1926;BME280;964;42.606;23.588;2023-02-17T07:09:43;95412.09;;;35.47;13.27
1926;BME280;964;42.606;23.588;2023-02-17T07:12:09;95412.44;;;34.97;13.70
1926;BME280;964;42.606;23.588;2023-02-17T07:14:36;95413.50;;;34.79;14.06
1926;BME280;964;42.606;23.588;2023-02-17T07:17:04;95399.50;;;35.40;13.31
1926;BME280;964;42.606;23.588;2023-02-17T07:19:31;95405.06;;;36.36;13.00
1926;BME280;964;42.606;23.588;2023-02-17T07:21:58;95404.72;;;36.82;12.59
1926;BME280;964;42.606;23.588;2023-02-17T07:24:25;95404.03;;;38.39;12.79
1926;BME280;964;42.606;23.588;2023-02-17T07:26:51;95395.50;;;38.78;12.17
1926;BME280;964;42.606;23.588;2023-02-17T07:29:20;95418.19;;;38.24;12.17
1926;BME280;964;42.606;23.588;2023-02-17T07:31:47;95424.06;;;37.71;12.17
1926;BME280;964;42.606;23.588;2023-02-17T07:34:15;95421.06;;;37.47;12.59
1926;BME280;964;42.606;23.588;2023-02-17T07:36:41;95420.69;;;38.28;12.00
1926;BME280;964;42.606;23.588;2023-02-17T07:39:08;95417.66;;;38.78;11.83
1926;BME280;964;42.606;23.588;2023-02-17T07:41:35;95415.94;;;38.75;12.07
1926;BME280;964;42.606;23.588;2023-02-17T07:44:01;95409.81;;;38.88;11.17
1926;BME280;964;42.606;23.588;2023-02-17T07:46:29;95410.19;;;39.68;11.39
1926;BME280;964;42.606;23.588;2023-02-17T07:48:55;95408.53;;;38.94;11.70
1926;BME280;964;42.606;23.588;2023-02-17T07:51:24;95414.69;;;38.70;11.67
1926;BME280;964;42.606;23.588;2023-02-17T07:53:51;95406.28;;;39.82;11.21
1926;BME280;964;42.606;23.588;2023-02-17T07:56:19;95402.50;;;40.28;11.19
1926;BME280;964;42.606;23.588;2023-02-17T07:58:47;95401.16;;;40.91;10.48
1926;BME280;964;42.606;23.588;2023-02-17T08:01:15;95404.41;;;41.27;10.81
1926;BME280;964;42.606;23.588;2023-02-17T08:03:43;95401.72;;;41.79;10.79
1926;BME280;964;42.606;23.588;2023-02-17T08:06:10;95400.91;;;42.11;9.95
1926;BME280;964;42.606;23.588;2023-02-17T08:08:39;95399.28;;;41.31;10.74
1926;BME280;964;42.606;23.588;2023-02-17T08:11:23;95405.47;;;41.24;10.96
1926;BME280;964;42.606;23.588;2023-02-17T08:14:07;95397.41;;;41.52;10.86
1926;BME280;964;42.606;23.588;2023-02-17T08:16:34;95400.53;;;41.17;10.66
1926;BME280;964;42.606;23.588;2023-02-17T08:19:01;95411.78;;;41.69;10.91
1926;BME280;964;42.606;23.588;2023-02-17T08:21:28;95411.97;;;41.13;10.99
1926;BME280;964;42.606;23.588;2023-02-17T08:23:56;95406.47;;;41.39;10.43
1926;BME280;964;42.606;23.588;2023-02-17T08:26:22;95414.38;;;41.03;10.71
1926;BME280;964;42.606;23.588;2023-02-17T08:28:49;95413.88;;;41.18;10.77
1926;BME280;964;42.606;23.588;2023-02-17T08:31:17;95420.06;;;40.92;10.69
1926;BME280;964;42.606;23.588;2023-02-17T08:33:44;95412.34;;;42.93;10.35
1926;BME280;964;42.606;23.588;2023-02-17T08:36:11;95403.28;;;43.14;10.13
1926;BME280;964;42.606;23.588;2023-02-17T08:38:38;95401.47;;;43.65;10.39
1926;BME280;964;42.606;23.588;2023-02-17T08:41:14;95409.94;;;43.11;9.73
1926;BME280;964;42.606;23.588;2023-02-17T08:43:42;95395.34;;;43.67;9.73
1926;BME280;964;42.606;23.588;2023-02-17T08:46:10;95384.56;;;43.91;9.75
1926;BME280;964;42.606;23.588;2023-02-17T08:48:38;95386.19;;;45.55;9.76
1926;BME280;964;42.606;23.588;2023-02-17T08:51:05;95395.78;;;44.86;9.79
1926;BME280;964;42.606;23.588;2023-02-17T08:53:33;95390.88;;;44.64;9.62
1926;BME280;964;42.606;23.588;2023-02-17T08:56:02;95394.25;;;44.62;9.83
1926;BME280;964;42.606;23.588;2023-02-17T08:58:31;95394.00;;;45.04;9.91
1926;BME280;964;42.606;23.588;2023-02-17T09:00:58;95397.81;;;44.70;9.60
1926;BME280;964;42.606;23.588;2023-02-17T09:03:25;95388.84;;;45.38;9.47
1926;BME280;964;42.606;23.588;2023-02-17T09:05:52;95388.72;;;44.77;9.85
1926;BME280;964;42.606;23.588;2023-02-17T09:08:19;95389.44;;;44.78;10.07
1926;BME280;964;42.606;23.588;2023-02-17T09:10:46;95400.66;;;44.85;9.97
1926;BME280;964;42.606;23.588;2023-02-17T09:13:13;95403.47;;;44.42;9.74
1926;BME280;964;42.606;23.588;2023-02-17T09:15:41;95413.63;;;43.06;9.85
1926;BME280;964;42.606;23.588;2023-02-17T09:18:08;95406.41;;;43.31;10.01
1926;BME280;964;42.606;23.588;2023-02-17T09:20:35;95399.66;;;43.47;10.18
1926;BME280;964;42.606;23.588;2023-02-17T09:23:02;95374.44;;;43.81;9.88
1926;BME280;964;42.606;23.588;2023-02-17T09:25:29;95389.19;;;43.19;10.08
1926;BME280;964;42.606;23.588;2023-02-17T09:27:56;95395.50;;;42.65;9.97
1926;BME280;964;42.606;23.588;2023-02-17T09:30:22;95398.88;;;42.84;10.16
1926;BME280;964;42.606;23.588;2023-02-17T09:32:51;95387.13;;;42.65;10.12
1926;BME280;964;42.606;23.588;2023-02-17T09:35:18;95387.81;;;42.32;10.51
1926;BME280;964;42.606;23.588;2023-02-17T09:37:44;95395.56;;;41.99;10.30
1926;BME280;964;42.606;23.588;2023-02-17T09:40:16;95393.06;;;42.35;10.64
1926;BME280;964;42.606;23.588;2023-02-17T09:42:43;95392.00;;;41.28;10.91
1926;BME280;964;42.606;23.588;2023-02-17T09:45:18;95402.63;;;42.00;10.38
1926;BME280;964;42.606;23.588;2023-02-17T09:47:49;95392.44;;;41.90;10.74
1926;BME280;964;42.606;23.588;2023-02-17T09:50:22;95388.78;;;41.95;10.43
1926;BME280;964;42.606;23.588;2023-02-17T09:52:53;95397.69;;;41.93;10.42
1926;BME280;964;42.606;23.588;2023-02-17T09:55:25;95394.25;;;42.14;11.00
1926;BME280;964;42.606;23.588;2023-02-17T09:57:57;95398.72;;;41.64;11.23
1926;BME280;964;42.606;23.588;2023-02-17T10:00:28;95394.44;;;42.42;10.90
1926;BME280;964;42.606;23.588;2023-02-17T10:03:01;95382.31;;;43.41;10.46
1926;BME280;964;42.606;23.588;2023-02-17T10:05:34;95369.47;;;44.23;9.79
1926;BME280;964;42.606;23.588;2023-02-17T10:08:06;95371.97;;;44.06;9.74
1926;BME280;964;42.606;23.588;2023-02-17T10:10:39;95360.03;;;45.00;9.56
1926;BME280;964;42.606;23.588;2023-02-17T10:13:17;95352.41;;;44.49;10.02
1926;BME280;964;42.606;23.588;2023-02-17T10:15:48;95350.28;;;44.93;10.06
1926;BME280;964;42.606;23.588;2023-02-17T10:18:20;95366.63;;;42.29;10.53
1926;BME280;964;42.606;23.588;2023-02-17T10:20:57;95363.78;;;42.42;10.42
1926;BME280;964;42.606;23.588;2023-02-17T10:23:27;95363.59;;;41.74;10.71
1926;BME280;964;42.606;23.588;2023-02-17T10:26:14;95358.03;;;42.27;10.30
1926;BME280;964;42.606;23.588;2023-02-17T10:28:49;95355.91;;;42.06;10.53
1926;BME280;964;42.606;23.588;2023-02-17T10:31:24;95346.88;;;42.40;10.30
1926;BME280;964;42.606;23.588;2023-02-17T10:33:55;95349.47;;;41.98;10.94
1926;BME280;964;42.606;23.588;2023-02-17T10:36:34;95343.00;;;41.38;10.57
1926;BME280;964;42.606;23.588;2023-02-17T10:39:08;95339.41;;;41.69;11.24
1926;BME280;964;42.606;23.588;2023-02-17T10:41:39;95330.41;;;42.02;10.63
1926;BME280;964;42.606;23.588;2023-02-17T10:44:11;95319.56;;;43.14;10.15
1926;BME280;964;42.606;23.588;2023-02-17T10:46:41;95331.59;;;41.81;10.06
1926;BME280;964;42.606;23.588;2023-02-17T10:49:25;95328.38;;;40.55;10.61
1926;BME280;964;42.606;23.588;2023-02-17T10:51:53;95330.13;;;39.23;11.17
1926;BME280;964;42.606;23.588;2023-02-17T10:54:28;95318.13;;;38.45;11.49
1926;BME280;964;42.606;23.588;2023-02-17T10:56:57;95332.09;;;36.98;11.85
1926;BME280;964;42.606;23.588;2023-02-17T10:59:29;95322.56;;;37.10;11.74
1926;BME280;964;42.606;23.588;2023-02-17T11:01:59;95330.63;;;37.08;12.16
1926;BME280;964;42.606;23.588;2023-02-17T11:04:40;95326.72;;;36.22;12.30
1926;BME280;964;42.606;23.588;2023-02-17T11:07:11;95315.75;;;37.45;11.62
1926;BME280;964;42.606;23.588;2023-02-17T11:09:44;95311.75;;;37.29;11.53
1926;BME280;964;42.606;23.588;2023-02-17T11:12:13;95308.72;;;38.12;11.55
1926;BME280;964;42.606;23.588;2023-02-17T11:14:44;95299.09;;;38.65;11.51
1926;BME280;964;42.606;23.588;2023-02-17T11:17:13;95300.16;;;38.92;11.62
1926;BME280;964;42.606;23.588;2023-02-17T11:19:53;95298.75;;;37.98;11.16
1926;BME280;964;42.606;23.588;2023-02-17T11:22:34;95309.50;;;36.94;11.67
1926;BME280;964;42.606;23.588;2023-02-17T11:25:19;95304.50;;;36.65;11.85
1926;BME280;964;42.606;23.588;2023-02-17T11:27:50;95301.22;;;35.74;11.87
1926;BME280;964;42.606;23.588;2023-02-17T11:30:17;95303.94;;;36.50;12.26
1926;BME280;964;42.606;23.588;2023-02-17T11:32:44;95300.19;;;36.53;12.07
1926;BME280;964;42.606;23.588;2023-02-17T11:35:22;95295.69;;;36.83;11.86
1926;BME280;964;42.606;23.588;2023-02-17T11:37:51;95277.06;;;38.02;11.10
1926;BME280;964;42.606;23.588;2023-02-17T11:40:23;95289.84;;;37.42;11.23
1926;BME280;964;42.606;23.588;2023-02-17T11:42:55;95292.19;;;36.94;11.60
1926;BME280;964;42.606;23.588;2023-02-17T11:45:23;95284.81;;;36.29;11.82
1926;BME280;964;42.606;23.588;2023-02-17T11:48:01;95286.66;;;36.60;11.89
1926;BME280;964;42.606;23.588;2023-02-17T11:50:35;95275.28;;;36.30;12.03
1926;BME280;964;42.606;23.588;2023-02-17T11:53:17;95270.31;;;37.01;11.77
1926;BME280;964;42.606;23.588;2023-02-17T11:55:53;95269.31;;;36.60;11.83
1926;BME280;964;42.606;23.588;2023-02-17T11:58:33;95266.53;;;36.32;11.59
1926;BME280;964;42.606;23.588;2023-02-17T12:01:15;95273.94;;;36.04;11.70
1926;BME280;964;42.606;23.588;2023-02-17T12:04:11;95259.72;;;36.27;12.03
1926;BME280;964;42.606;23.588;2023-02-17T12:06:56;95270.88;;;35.74;12.01
1926;BME280;964;42.606;23.588;2023-02-17T12:09:30;95259.19;;;37.34;11.66
1926;BME280;964;42.606;23.588;2023-02-17T12:12:06;95248.47;;;37.83;11.51
1926;BME280;964;42.606;23.588;2023-02-17T12:14:52;95261.25;;;37.06;11.58
1926;BME280;964;42.606;23.588;2023-02-17T12:17:28;95253.47;;;36.88;11.53
1926;BME280;964;42.606;23.588;2023-02-17T12:20:06;95251.50;;;36.72;11.23
1926;BME280;964;42.606;23.588;2023-02-17T12:22:44;95245.91;;;37.22;11.11
1926;BME280;964;42.606;23.588;2023-02-17T12:25:23;95249.00;;;36.68;11.27
1926;BME280;964;42.606;23.588;2023-02-17T12:28:13;95239.66;;;36.99;11.80
1926;BME280;964;42.606;23.588;2023-02-17T12:30:51;95248.69;;;36.27;12.05
1926;BME280;964;42.606;23.588;2023-02-17T12:33:35;95246.81;;;37.47;11.68
1926;BME280;964;42.606;23.588;2023-02-17T12:36:07;95237.69;;;36.61;11.64
1926;BME280;964;42.606;23.588;2023-02-17T12:38:38;95232.88;;;36.95;11.94
1926;BME280;964;42.606;23.588;2023-02-17T12:41:10;95229.59;;;36.96;11.86
1926;BME280;964;42.606;23.588;2023-02-17T12:43:42;95233.38;;;35.51;12.58
1926;BME280;964;42.606;23.588;2023-02-17T12:46:13;95222.06;;;36.19;11.87
1926;BME280;964;42.606;23.588;2023-02-17T12:48:45;95225.59;;;36.19;12.37
1926;BME280;964;42.606;23.588;2023-02-17T12:51:19;95208.78;;;37.69;11.74
1926;BME280;964;42.606;23.588;2023-02-17T12:53:49;95216.19;;;37.45;11.10
1926;BME280;964;42.606;23.588;2023-02-17T12:56:47;95215.28;;;37.14;11.98
1926;BME280;964;42.606;23.588;2023-02-17T12:59:17;95211.69;;;37.36;11.79
1926;BME280;964;42.606;23.588;2023-02-17T13:01:55;95212.25;;;37.81;11.71
1926;BME280;964;42.606;23.588;2023-02-17T13:04:25;95209.53;;;36.34;12.10
1926;BME280;964;42.606;23.588;2023-02-17T13:07:08;95212.00;;;37.10;11.78
1926;BME280;964;42.606;23.588;2023-02-17T13:09:39;95214.06;;;36.49;11.97
1926;BME280;964;42.606;23.588;2023-02-17T13:12:17;95214.03;;;36.93;11.91
1926;BME280;964;42.606;23.588;2023-02-17T13:14:55;95208.97;;;37.19;11.26
1926;BME280;964;42.606;23.588;2023-02-17T13:17:24;95203.63;;;37.90;11.89
1926;BME280;964;42.606;23.588;2023-02-17T13:20:25;95198.84;;;37.91;11.77
1926;BME280;964;42.606;23.588;2023-02-17T13:23:03;95198.59;;;37.94;10.96
1926;BME280;964;42.606;23.588;2023-02-17T13:25:32;95204.81;;;38.06;11.05
1926;BME280;964;42.606;23.588;2023-02-17T13:28:02;95208.22;;;37.19;11.32
1926;BME280;964;42.606;23.588;2023-02-17T13:30:42;95201.22;;;37.07;12.04
1926;BME280;964;42.606;23.588;2023-02-17T13:33:26;95191.31;;;38.26;11.16
1926;BME280;964;42.606;23.588;2023-02-17T13:35:53;95193.94;;;37.72;11.59
1926;BME280;964;42.606;23.588;2023-02-17T13:38:25;95200.94;;;37.10;11.34
1926;BME280;964;42.606;23.588;2023-02-17T13:40:57;95190.25;;;37.53;11.06
1926;BME280;964;42.606;23.588;2023-02-17T13:43:27;95191.03;;;37.43;11.27
1926;BME280;964;42.606;23.588;2023-02-17T13:45:57;95202.50;;;36.78;11.55